Time;durP1;ratioP1;P1;durP2;ratioP2;P2;SDS_P1;SDS_P2;PMS_P1;PMS_P2;Temp;Humidity;BMP_temperature;BMP_pressure;BME280_temperature;BME280_humidity;BME280_pressure;Samples;Min_cycle;Max_cycle;Signal;HPM_P1;HPM_P2
2021/12/11 00:02:22;;;;;;;145.70;41.80;;;;;;;1.82;100.00;100699.78;5031525;28;20096;-76
2021/12/11 00:04:55;;;;;;;156.40;42.40;;;;;;;1.82;100.00;100698.03;5031801;28;20033;-76
2021/12/11 00:07:22;;;;;;;142.18;38.75;;;;;;;1.83;100.00;100706.72;5031771;28;20033;-76
2021/12/11 00:09:52;;;;;;;158.48;41.05;;;;;;;1.82;100.00;100713.75;5031502;28;20025;-77
2021/12/11 00:12:21;;;;;;;137.32;40.63;;;;;;;1.82;100.00;100721.63;5031373;28;20037;-76
2021/12/11 00:14:52;;;;;;;156.75;41.97;;;;;;;1.83;100.00;100725.09;5031577;28;20029;-77
2021/12/11 00:17:29;;;;;;;150.13;40.83;;;;;;;1.83;100.00;100727.72;5013562;28;20049;-76
2021/12/11 00:19:55;;;;;;;141.07;41.42;;;;;;;1.84;100.00;100735.50;5031550;28;20112;-76
2021/12/11 00:22:25;;;;;;;144.13;39.72;;;;;;;1.84;100.00;100745.16;5031130;28;20315;-77
2021/12/11 00:24:51;;;;;;;143.02;40.47;;;;;;;1.84;100.00;100747.78;5031120;28;20033;-77
2021/12/11 00:27:24;;;;;;;143.20;40.53;;;;;;;1.84;100.00;100739.91;5031446;28;20037;-76
2021/12/11 00:29:51;;;;;;;149.70;41.53;;;;;;;1.83;100.00;100752.16;5031231;28;20029;-77
2021/12/11 00:32:23;;;;;;;143.82;41.60;;;;;;;1.84;100.00;100763.53;5030885;28;20097;-76
2021/12/11 00:34:52;;;;;;;148.23;41.92;;;;;;;1.84;100.00;100768.78;5030931;28;20033;-77
2021/12/11 00:37:22;;;;;;;140.32;41.55;;;;;;;1.84;100.00;100779.28;5030994;28;20029;-77
2021/12/11 00:39:59;;;;;;;145.93;40.72;;;;;;;1.83;100.00;100773.16;5031194;28;20033;-78
2021/12/11 00:42:33;;;;;;;146.75;42.55;;;;;;;1.83;100.00;100782.81;5031160;28;20036;-76
2021/12/11 00:45:08;;;;;;;135.32;39.92;;;;;;;1.82;100.00;100791.59;5031121;28;20091;-76
2021/12/11 00:47:34;;;;;;;143.07;40.78;;;;;;;1.82;100.00;100786.34;5012950;28;20045;-75
2021/12/11 00:50:12;;;;;;;145.85;41.20;;;;;;;1.83;100.00;100793.31;5031110;28;20551;-76
2021/12/11 00:52:44;;;;;;;133.18;40.17;;;;;;;1.82;100.00;100794.22;5031065;28;20030;-76
2021/12/11 00:55:44;;;;;;;149.35;40.88;;;;;;;1.81;100.00;100797.78;5030735;28;20029;-76
2021/12/11 00:58:13;;;;;;;142.75;40.38;;;;;;;1.81;100.00;100805.66;5030986;28;20450;-76
2021/12/11 01:01:02;;;;;;;154.75;41.90;;;;;;;1.82;100.00;100816.09;5013401;28;20365;-76
2021/12/11 01:03:46;;;;;;;145.45;41.35;;;;;;;1.80;100.00;100817.94;5030676;28;20496;-78
2021/12/11 01:06:34;;;;;;;138.25;39.20;;;;;;;1.82;100.00;100820.47;5030767;28;20108;-76
2021/12/11 01:09:09;;;;;;;133.15;39.65;;;;;;;1.82;100.00;100829.22;5031120;28;20073;-76
2021/12/11 01:11:37;;;;;;;147.25;41.30;;;;;;;1.82;100.00;100828.34;5031090;28;20060;-75
2021/12/11 01:14:28;;;;;;;143.52;40.08;;;;;;;1.84;100.00;100837.00;5030252;28;20029;-77
2021/12/11 01:17:03;;;;;;;144.35;41.05;;;;;;;1.84;100.00;100837.00;5030423;28;20049;-78
2021/12/11 01:19:36;;;;;;;144.52;40.47;;;;;;;1.86;100.00;100845.63;5030692;28;20057;-77
2021/12/11 01:22:10;;;;;;;155.07;39.55;;;;;;;1.86;100.00;100843.00;5030262;28;20095;-78
2021/12/11 01:24:43;;;;;;;141.45;39.20;;;;;;;1.84;100.00;100845.69;5030579;28;20121;-77
2021/12/11 01:27:14;;;;;;;137.07;39.22;;;;;;;1.81;100.00;100842.38;5030359;28;20124;-77
2021/12/11 01:29:39;;;;;;;123.60;37.35;;;;;;;1.76;100.00;100840.88;5030307;28;20029;-77
2021/12/11 01:32:06;;;;;;;148.77;39.47;;;;;;;1.73;100.00;100854.16;5030127;28;20055;-76
2021/12/11 01:34:32;;;;;;;131.88;35.80;;;;;;;1.73;100.00;100863.78;5012768;28;20033;-75
2021/12/11 01:36:58;;;;;;;126.68;37.85;;;;;;;1.70;100.00;100879.69;5012910;28;20318;-78
2021/12/11 01:39:29;;;;;;;146.10;39.60;;;;;;;1.67;100.00;100878.09;5012629;28;20419;-77
2021/12/11 01:41:56;;;;;;;155.80;40.30;;;;;;;1.67;100.00;100882.47;5030319;28;20029;-77
2021/12/11 01:44:29;;;;;;;157.00;40.45;;;;;;;1.68;100.00;100881.56;5030755;28;20049;-77
2021/12/11 01:47:06;;;;;;;143.77;39.25;;;;;;;1.66;100.00;100891.28;5030756;28;20116;-77
2021/12/11 01:49:32;;;;;;;149.73;40.00;;;;;;;1.64;100.00;100893.13;5030260;28;20052;-77
2021/12/11 01:52:06;;;;;;;141.63;41.05;;;;;;;1.59;100.00;100893.38;5030522;28;20102;-78
2021/12/11 01:54:39;;;;;;;147.32;40.08;;;;;;;1.55;100.00;100910.19;5030685;28;20030;-77
2021/12/11 01:57:12;;;;;;;141.35;38.55;;;;;;;1.52;100.00;100918.22;5031124;28;20078;-77
2021/12/11 01:59:40;;;;;;;138.50;39.78;;;;;;;1.47;100.00;100917.63;5031920;28;20056;-77
2021/12/11 02:02:13;;;;;;;140.20;38.58;;;;;;;1.39;100.00;100916.22;5030991;28;20116;-77
2021/12/11 02:04:46;;;;;;;134.95;38.20;;;;;;;1.32;100.00;100929.72;5031288;28;20038;-77
2021/12/11 02:07:19;;;;;;;135.00;37.45;;;;;;;1.28;100.00;100936.03;5030770;28;20061;-77
2021/12/11 02:09:54;;;;;;;137.30;37.88;;;;;;;1.21;100.00;100935.53;5030871;28;20205;-77
2021/12/11 02:12:28;;;;;;;135.80;38.20;;;;;;;1.14;100.00;100947.22;5014013;28;20088;-77
2021/12/11 02:14:55;;;;;;;131.43;35.38;;;;;;;1.05;100.00;100944.13;5012708;28;20032;-77
2021/12/11 02:17:29;;;;;;;158.43;39.78;;;;;;;1.05;100.00;100943.28;5030564;28;20442;-77
2021/12/11 02:19:58;;;;;;;135.20;37.15;;;;;;;1.10;100.00;100954.38;5030517;28;20040;-77
2021/12/11 02:22:26;;;;;;;136.73;38.80;;;;;;;1.20;100.00;100957.41;5030277;28;20036;-77
2021/12/11 02:24:58;;;;;;;141.80;37.85;;;;;;;1.32;100.00;100962.03;5030676;28;20325;-77
2021/12/11 02:27:33;;;;;;;158.18;39.53;;;;;;;1.37;100.00;100970.53;5033549;28;20107;-78
2021/12/11 02:30:18;;;;;;;180.63;41.65;;;;;;;1.42;100.00;100967.69;5033860;28;20029;-77
2021/12/11 02:32:51;;;;;;;184.73;42.47;;;;;;;1.43;100.00;100966.72;5033650;28;20070;-77
2021/12/11 02:35:32;;;;;;;176.43;43.53;;;;;;;1.41;100.00;100971.22;5033237;28;20366;-77
2021/12/11 02:38:14;;;;;;;205.15;56.55;;;;;;;1.39;100.00;100980.94;5033547;28;20025;-77
2021/12/11 02:40:52;;;;;;;225.82;71.13;;;;;;;1.36;100.00;100984.56;5033233;28;20030;-78
2021/12/11 02:43:21;;;;;;;273.58;83.57;;;;;;;1.36;100.00;100986.34;5033363;28;20029;-77
2021/12/11 02:46:01;;;;;;;284.58;86.43;;;;;;;1.39;100.00;100988.81;5015146;28;20337;-77
2021/12/11 02:48:32;;;;;;;268.02;79.55;;;;;;;1.41;100.00;100990.41;5033075;28;20441;-78
2021/12/11 02:51:16;;;;;;;286.83;79.15;;;;;;;1.43;100.00;101003.44;5032924;28;20098;-77
2021/12/11 02:53:55;;;;;;;234.35;64.50;;;;;;;1.43;100.00;100995.56;5033255;28;20033;-78
2021/12/11 02:56:28;;;;;;;227.32;56.80;;;;;;;1.43;100.00;100995.56;5015081;28;20037;-77
2021/12/11 02:58:57;;;;;;;213.60;56.55;;;;;;;1.43;100.00;100995.56;4999072;28;20445;-77
2021/12/11 03:01:31;;;;;;;217.40;55.67;;;;;;;1.41;100.00;100995.66;5032853;28;20053;-77
2021/12/11 03:04:18;;;;;;;208.85;50.72;;;;;;;1.36;100.00;100999.44;5033393;28;20041;-77
2021/12/11 03:06:46;;;;;;;201.80;52.13;;;;;;;1.33;100.00;100997.81;5032755;28;20174;-77
2021/12/11 03:09:16;;;;;;;204.35;50.70;;;;;;;1.30;100.00;100995.34;5032505;28;20529;-77
2021/12/11 03:11:42;;;;;;;220.48;52.92;;;;;;;1.32;100.00;100995.28;5032774;28;20096;-76
2021/12/11 03:14:12;;;;;;;237.80;57.20;;;;;;;1.34;100.00;100996.03;5014846;28;20132;-78
2021/12/11 03:16:40;;;;;;;230.85;57.95;;;;;;;1.34;100.00;100994.25;5032631;28;20076;-77
2021/12/11 03:19:08;;;;;;;231.98;58.03;;;;;;;1.37;100.00;101001.13;5032587;28;20033;-77
2021/12/11 03:21:34;;;;;;;262.67;60.95;;;;;;;1.40;100.00;100996.59;5031464;28;20092;-77
2021/12/11 03:24:00;;;;;;;223.10;59.55;;;;;;;1.47;100.00;101004.16;5014556;28;20042;-76
2021/12/11 03:26:26;;;;;;;238.13;59.15;;;;;;;1.49;100.00;101002.28;5014406;28;20060;-76
2021/12/11 03:28:52;;;;;;;249.35;60.78;;;;;;;1.47;100.00;101007.63;5032137;28;20418;-76
2021/12/11 03:31:18;;;;;;;216.48;54.72;;;;;;;1.49;100.00;101010.16;5014612;28;20030;-76
2021/12/11 03:33:49;;;;;;;204.77;50.90;;;;;;;1.51;100.00;101013.56;5032169;28;20435;-76
2021/12/11 03:36:17;;;;;;;186.13;46.80;;;;;;;1.61;100.00;101006.91;5030858;28;20123;-79
2021/12/11 03:38:46;;;;;;;215.27;47.38;;;;;;;1.72;100.00;101009.03;5031974;28;20029;-79
2021/12/11 03:41:12;;;;;;;162.60;41.30;;;;;;;1.80;100.00;101014.72;5032340;28;20112;-79
2021/12/11 03:43:38;;;;;;;211.80;46.00;;;;;;;1.89;100.00;101024.72;5031823;28;20446;-76
2021/12/11 03:46:06;;;;;;;182.00;43.13;;;;;;;1.95;100.00;101018.31;5032256;28;20327;-77
2021/12/11 03:48:44;;;;;;;186.52;42.90;;;;;;;1.96;100.00;101019.16;5014174;28;20481;-78
2021/12/11 03:51:12;;;;;;;187.35;41.50;;;;;;;1.98;100.00;101022.56;5032151;28;20057;-78
2021/12/11 03:53:38;;;;;;;170.95;38.83;;;;;;;2.03;100.00;101025.78;5032190;28;20041;-78
2021/12/11 03:56:07;;;;;;;179.35;37.90;;;;;;;2.08;100.00;101024.63;5032034;28;20367;-75
2021/12/11 03:58:34;;;;;;;185.88;40.47;;;;;;;2.13;100.00;101037.53;5031767;28;20071;-78
2021/12/11 04:01:07;;;;;;;169.13;39.00;;;;;;;2.17;100.00;101027.72;5032135;28;20120;-78
2021/12/11 04:03:37;;;;;;;160.45;38.45;;;;;;;2.19;100.00;101036.34;5032261;28;20026;-78
2021/12/11 04:06:07;;;;;;;168.93;38.92;;;;;;;2.18;100.00;101030.28;5031728;28;20033;-75
2021/12/11 04:08:40;;;;;;;162.27;37.60;;;;;;;2.19;100.00;101033.72;5032166;28;20029;-78
2021/12/11 04:11:12;;;;;;;166.07;38.28;;;;;;;2.18;100.00;101042.53;5031726;28;20022;-77
2021/12/11 04:13:38;;;;;;;145.30;34.70;;;;;;;2.17;100.00;101040.84;5013578;28;20030;-75
2021/12/11 04:16:06;;;;;;;160.05;36.70;;;;;;;2.16;100.00;101042.59;5031274;28;20029;-75
2021/12/11 04:18:31;;;;;;;165.80;35.83;;;;;;;2.15;100.00;101038.31;5031069;28;20037;-75
2021/12/11 04:20:57;;;;;;;88.82;24.63;;;;;;;2.20;100.00;101044.16;5013396;28;20044;-75
2021/12/11 04:23:22;;;;;;;73.13;14.38;;;;;;;2.32;100.00;101055.78;5031534;28;20084;-75
2021/12/11 04:25:51;;;;;;;31.60;6.43;;;;;;;2.55;100.00;101048.47;5031349;28;20072;-76
2021/12/11 04:28:18;;;;;;;34.25;4.22;;;;;;;2.69;100.00;101050.34;5031303;28;20500;-76
2021/12/11 04:30:47;;;;;;;23.85;2.92;;;;;;;2.90;100.00;101054.44;5031302;28;20030;-75
2021/12/11 04:33:13;;;;;;;20.60;2.17;;;;;;;3.07;100.00;101057.91;5031490;28;20528;-77
2021/12/11 04:35:40;;;;;;;20.05;2.35;;;;;;;3.14;100.00;101065.38;5031519;28;20121;-77
2021/12/11 04:38:08;;;;;;;22.23;2.72;;;;;;;3.23;100.00;101063.19;5031737;28;20065;-77
2021/12/11 04:40:37;;;;;;;26.48;3.05;;;;;;;3.27;100.00;101078.69;5029929;28;20083;-77
2021/12/11 04:43:10;;;;;;;20.95;2.20;;;;;;;3.31;100.00;101079.38;5031029;28;20075;-77
2021/12/11 04:46:01;;;;;;;14.15;2.05;;;;;;;3.44;100.00;101069.84;5031063;28;20434;-77
2021/12/11 04:49:05;;;;;;;24.73;2.03;;;;;;;3.59;100.00;101080.44;5026099;28;20474;-77
2021/12/11 04:51:45;;;;;;;14.30;2.03;;;;;;;3.64;100.00;101068.72;5030770;28;20026;-77
2021/12/11 05:07:23;;;;;;;18.00;2.15;;;;;;;4.23;98.66;101097.72;5030968;28;20114;-75
2021/12/11 05:10:02;;;;;;;12.90;2.22;;;;;;;4.23;98.85;101099.50;5013187;28;20358;-74
2021/12/11 05:12:35;;;;;;;20.48;2.13;;;;;;;4.29;98.09;101104.41;5030793;28;20064;-75
2021/12/11 05:15:07;;;;;;;17.10;2.13;;;;;;;4.34;98.34;101118.13;5030887;28;20045;-74
2021/12/11 05:17:32;;;;;;;24.13;2.70;;;;;;;4.36;97.89;101116.28;5012255;28;20172;-74
2021/12/11 05:19:58;;;;;;;17.42;2.05;;;;;;;4.39;97.68;101110.81;5030913;28;20112;-75
2021/12/11 05:22:23;;;;;;;19.40;2.42;;;;;;;4.43;97.26;101116.75;4996742;28;20052;-76
2021/12/11 05:24:52;;;;;;;14.80;2.63;;;;;;;4.54;97.18;101127.50;5030877;28;20488;-75
2021/12/11 05:27:18;;;;;;;17.48;2.28;;;;;;;4.65;96.75;101120.72;5030600;28;20495;-75
2021/12/11 05:29:44;;;;;;;13.38;2.42;;;;;;;4.66;97.68;101127.66;5030725;28;20041;-76
2021/12/11 05:32:12;;;;;;;17.63;2.17;;;;;;;4.64;98.17;101137.47;5030602;28;20033;-76
2021/12/11 05:34:39;;;;;;;15.65;1.95;;;;;;;4.58;98.86;101141.31;5030693;28;20026;-77
2021/12/11 05:37:04;;;;;;;21.52;4.22;;;;;;;4.50;99.81;101138.31;5013629;28;20122;-77
2021/12/11 05:39:30;;;;;;;20.10;2.35;;;;;;;4.44;100.00;101146.59;5031202;28;20041;-77
2021/12/11 05:41:56;;;;;;;24.15;2.35;;;;;;;4.41;100.00;101142.34;5013249;28;20048;-76
2021/12/11 05:44:23;;;;;;;28.27;3.10;;;;;;;4.38;100.00;101148.63;5030641;28;20037;-76
2021/12/11 05:46:50;;;;;;;16.00;2.55;;;;;;;4.37;100.00;101148.72;5030701;28;20029;-76
2021/12/11 05:49:16;;;;;;;17.17;2.13;;;;;;;4.35;100.00;101153.25;5031013;28;20068;-76
2021/12/11 05:51:45;;;;;;;16.65;2.30;;;;;;;4.34;100.00;101162.91;5030709;28;20065;-76
2021/12/11 05:54:15;;;;;;;13.23;2.55;;;;;;;4.39;100.00;101167.94;5030484;28;20048;-75
2021/12/11 05:56:42;;;;;;;23.02;2.20;;;;;;;4.38;100.00;101161.81;5030385;28;20441;-76
2021/12/11 05:59:10;;;;;;;22.38;2.22;;;;;;;4.39;100.00;101174.06;5030539;28;20113;-76
2021/12/11 06:01:41;;;;;;;21.52;2.10;;;;;;;4.38;100.00;101177.63;5032107;28;20029;-76
2021/12/11 06:04:12;;;;;;;17.80;2.10;;;;;;;4.36;100.00;101183.91;5034075;28;20064;-76
2021/12/11 06:06:38;;;;;;;12.45;2.33;;;;;;;4.36;100.00;101183.91;5016616;28;20026;-76
2021/12/11 06:09:06;;;;;;;13.98;2.05;;;;;;;4.38;100.00;101195.22;5033722;28;20033;-75
2021/12/11 06:11:35;;;;;;;16.40;2.33;;;;;;;4.37;100.00;101188.25;5034683;28;20053;-77
2021/12/11 06:14:02;;;;;;;15.95;2.20;;;;;;;4.39;100.00;101200.41;5034507;28;20051;-76
2021/12/11 06:16:27;;;;;;;8.82;1.60;;;;;;;4.34;100.00;101205.06;5033756;28;20057;-76
2021/12/11 06:18:53;;;;;;;9.25;1.73;;;;;;;4.28;100.00;101215.97;5033785;28;20110;-76
2021/12/11 06:21:18;;;;;;;15.43;1.70;;;;;;;4.27;100.00;101221.34;5034404;28;20097;-75
2021/12/11 06:23:44;;;;;;;8.15;2.35;;;;;;;4.32;100.00;101224.56;5015898;28;20411;-76
2021/12/11 06:26:10;;;;;;;14.52;1.85;;;;;;;4.36;100.00;101232.19;5034066;28;20432;-76
2021/12/11 06:28:36;;;;;;;9.80;1.52;;;;;;;4.37;100.00;101236.53;5015733;28;20049;-76
2021/12/11 06:31:03;;;;;;;15.52;2.35;;;;;;;4.39;100.00;101249.63;5033517;28;20091;-76
2021/12/11 06:33:31;;;;;;;16.23;1.73;;;;;;;4.36;100.00;101253.28;5032100;28;20094;-76
2021/12/11 06:36:03;;;;;;;5.15;1.20;;;;;;;4.32;100.00;101264.94;5015808;28;20029;-76
2021/12/11 06:38:32;;;;;;;6.78;1.40;;;;;;;4.28;100.00;101266.03;5015635;28;20088;-76
2021/12/11 06:40:59;;;;;;;8.63;1.45;;;;;;;4.26;100.00;101269.72;5033625;28;20042;-76
2021/12/11 06:43:24;;;;;;;5.90;1.30;;;;;;;4.28;100.00;101270.47;5032000;28;20061;-76
2021/12/11 06:45:51;;;;;;;10.88;1.27;;;;;;;4.28;100.00;101276.56;5015310;28;20429;-76
2021/12/11 06:48:16;;;;;;;10.45;1.60;;;;;;;4.31;100.00;101276.38;5033326;28;20405;-76
2021/12/11 06:50:44;;;;;;;9.30;1.70;;;;;;;4.31;100.00;101275.56;5033337;28;20084;-76
2021/12/11 06:53:14;;;;;;;12.98;1.90;;;;;;;4.34;100.00;101292.03;5033137;28;20084;-76
2021/12/11 06:55:40;;;;;;;11.95;1.90;;;;;;;4.36;100.00;101292.81;5033208;28;20029;-75
2021/12/11 06:58:06;;;;;;;11.10;1.80;;;;;;;4.38;100.00;101300.63;5032970;28;20044;-78
2021/12/11 07:00:32;;;;;;;16.75;3.00;;;;;;;4.39;100.00;101310.22;5033372;28;20029;-78
2021/12/11 07:02:58;;;;;;;14.95;1.48;;;;;;;4.41;100.00;101311.81;5032621;28;20166;-78
2021/12/11 07:05:24;;;;;;;15.73;1.80;;;;;;;4.43;100.00;101321.44;5031674;28;20029;-76
2021/12/11 07:07:49;;;;;;;17.80;2.17;;;;;;;4.41;100.00;101326.78;5033099;28;20084;-78
2021/12/11 07:10:19;;;;;;;7.47;1.30;;;;;;;4.43;100.00;101343.34;5033305;28;20361;-77
2021/12/11 07:12:46;;;;;;;10.70;1.83;;;;;;;4.46;100.00;101347.59;5032415;28;20029;-78
2021/12/11 07:15:12;;;;;;;12.95;2.13;;;;;;;4.44;100.00;101349.50;5031221;28;20124;-78
2021/12/11 07:17:39;;;;;;;11.80;2.08;;;;;;;4.44;100.00;101357.41;5032918;28;20053;-80
2021/12/11 07:20:07;;;;;;;7.80;1.52;;;;;;;4.43;100.00;101361.78;5014858;28;20038;-76
2021/12/11 07:22:33;;;;;;;7.18;1.75;;;;;;;4.42;100.00;101362.75;5033041;28;20084;-75
2021/12/11 07:25:05;;;;;;;16.55;4.00;;;;;;;4.40;100.00;101365.47;5033075;28;20177;-78
2021/12/11 07:27:31;;;;;;;8.95;2.00;;;;;;;4.40;100.00;101375.16;5031476;28;20083;-75
2021/12/11 07:29:56;;;;;;;8.40;2.17;;;;;;;4.39;100.00;101384.00;5014844;28;20037;-78
2021/12/11 07:32:22;;;;;;;13.07;2.30;;;;;;;4.37;100.00;101391.13;5014955;28;20442;-76
2021/12/11 07:34:47;;;;;;;9.02;2.58;;;;;;;4.35;100.00;101398.28;5032497;28;20569;-75
2021/12/11 07:37:12;;;;;;;10.45;2.95;;;;;;;4.33;100.00;101405.41;5014799;28;20025;-76
2021/12/11 07:39:38;;;;;;;23.45;4.07;;;;;;;4.30;100.00;101418.75;5014561;28;20033;-76
2021/12/11 07:42:04;;;;;;;17.05;4.10;;;;;;;4.29;100.00;101420.53;5032381;28;20462;-76
2021/12/11 07:44:30;;;;;;;17.98;4.97;;;;;;;4.28;100.00;101425.88;5032548;28;20323;-76
2021/12/11 07:46:59;;;;;;;16.67;4.82;;;;;;;4.25;100.00;101426.91;5032096;28;20450;-77
2021/12/11 07:49:25;;;;;;;14.07;5.85;;;;;;;4.22;100.00;101432.34;5032459;28;20037;-77
2021/12/11 07:51:50;;;;;;;17.65;5.65;;;;;;;4.18;100.00;101429.03;5030619;28;20041;-76
2021/12/11 07:54:16;;;;;;;19.60;6.22;;;;;;;4.15;100.00;101438.88;5032144;28;20095;-76
2021/12/11 07:56:42;;;;;;;16.42;6.20;;;;;;;4.10;100.00;101436.47;5032034;28;20446;-77
2021/12/11 07:59:09;;;;;;;21.25;6.38;;;;;;;4.06;100.00;101458.63;5031674;28;20033;-76
2021/12/11 08:01:38;;;;;;;15.60;6.95;;;;;;;4.03;100.00;101459.69;5031921;28;20438;-76
2021/12/11 08:04:05;;;;;;;26.58;7.85;;;;;;;4.02;100.00;101465.03;5031840;28;20422;-76
2021/12/11 08:06:33;;;;;;;25.42;8.70;;;;;;;3.99;100.00;101463.41;5031864;28;20037;-76
2021/12/11 08:08:59;;;;;;;21.83;7.95;;;;;;;3.99;100.00;101473.09;5031812;28;20045;-77
2021/12/11 08:11:28;;;;;;;24.65;8.60;;;;;;;3.96;100.00;101476.72;5031786;28;20429;-75
2021/12/11 08:13:55;;;;;;;31.13;9.40;;;;;;;3.93;100.00;101486.59;5031637;28;20033;-75
2021/12/11 08:16:26;;;;;;;29.10;9.70;;;;;;;3.93;100.00;101483.94;5031631;28;20030;-75
2021/12/11 08:18:53;;;;;;;28.00;9.98;;;;;;;3.93;100.00;101494.47;5031660;28;20112;-76
2021/12/11 08:21:20;;;;;;;23.73;10.68;;;;;;;3.92;100.00;101493.63;5032285;28;20154;-75
2021/12/11 08:23:49;;;;;;;29.17;10.75;;;;;;;3.93;100.00;101507.66;5030591;28;20430;-77
2021/12/11 08:26:19;;;;;;;34.47;12.40;;;;;;;3.93;100.00;101502.38;5031484;28;20041;-75
2021/12/11 08:28:44;;;;;;;25.80;11.48;;;;;;;3.93;100.00;101512.91;5031353;28;20423;-78
2021/12/11 08:31:14;;;;;;;29.85;10.70;;;;;;;3.88;100.00;101511.38;5031422;28;20095;-77
2021/12/11 08:33:40;;;;;;;29.83;12.18;;;;;;;3.78;100.00;101515.41;5031217;28;20034;-76
2021/12/11 08:36:06;;;;;;;28.30;11.60;;;;;;;3.64;100.00;101518.75;5031269;28;20031;-77
2021/12/11 08:38:32;;;;;;;33.47;12.10;;;;;;;3.50;100.00;101521.19;5030963;28;20088;-76
2021/12/11 08:40:59;;;;;;;31.25;11.60;;;;;;;3.34;100.00;101524.59;5031297;28;20033;-76
2021/12/11 08:43:25;;;;;;;30.55;11.95;;;;;;;3.23;100.00;101526.91;5031317;28;20449;-76
2021/12/11 08:46:03;;;;;;;38.22;12.93;;;;;;;3.17;100.00;101537.72;5030960;28;20041;-76
2021/12/11 08:48:29;;;;;;;37.78;12.70;;;;;;;3.10;100.00;101542.41;5031599;28;20037;-75
2021/12/11 08:51:03;;;;;;;28.38;12.13;;;;;;;3.05;100.00;101551.47;5030993;28;20040;-76
2021/12/11 08:53:30;;;;;;;28.30;12.32;;;;;;;3.05;100.00;101554.94;5031780;28;20115;-77
2021/12/11 08:55:56;;;;;;;36.53;12.35;;;;;;;3.13;100.00;101562.44;5030965;28;20171;-75
2021/12/11 08:58:24;;;;;;;39.65;13.30;;;;;;;3.18;100.00;101565.72;5030992;28;20033;-77
2021/12/11 09:01:12;;;;;;;42.30;14.60;;;;;;;3.20;100.00;101561.25;5031139;28;20029;-78
2021/12/11 09:03:55;;;;;;;38.00;13.98;;;;;;;3.25;100.00;101563.66;5031185;28;20025;-77
2021/12/11 09:06:44;;;;;;;39.88;14.82;;;;;;;3.32;100.00;101576.41;5030957;28;20037;-78
2021/12/11 09:09:33;;;;;;;41.95;15.13;;;;;;;3.39;100.00;101579.63;5012787;28;20488;-76
2021/12/11 09:12:01;;;;;;;40.10;13.98;;;;;;;3.42;100.00;101584.72;5012964;28;20124;-76
2021/12/11 09:14:39;;;;;;;48.45;15.77;;;;;;;3.49;100.00;101585.28;5030734;28;20041;-75
2021/12/11 09:17:15;;;;;;;45.70;16.13;;;;;;;3.64;100.00;101578.41;5030546;28;20048;-75
2021/12/11 09:19:51;;;;;;;43.08;16.00;;;;;;;3.80;100.00;101583.75;5030794;28;20075;-75
2021/12/11 09:22:27;;;;;;;42.53;15.82;;;;;;;3.94;100.00;101588.31;5030825;28;20048;-75
2021/12/11 09:24:57;;;;;;;37.72;14.90;;;;;;;4.11;100.00;101595.38;5030382;28;20087;-77
2021/12/11 09:27:40;;;;;;;40.60;15.07;;;;;;;4.21;100.00;101597.47;5012865;28;20082;-76
2021/12/11 09:30:25;;;;;;;34.05;12.93;;;;;;;4.33;100.00;101600.38;5012771;28;20038;-75
2021/12/11 09:32:55;;;;;;;33.95;13.90;;;;;;;4.34;100.00;101592.38;5030635;28;20104;-76
2021/12/11 09:35:27;;;;;;;31.40;14.13;;;;;;;4.34;100.00;101602.09;5029971;28;20034;-75
2021/12/11 09:37:59;;;;;;;27.75;12.80;;;;;;;4.39;100.00;101606.19;5030406;28;20082;-76
2021/12/11 09:40:36;;;;;;;36.10;12.95;;;;;;;4.49;100.00;101610.97;5012785;28;20437;-75
2021/12/11 09:43:02;;;;;;;31.88;12.10;;;;;;;4.61;100.00;101612.09;5030476;28;20060;-77
2021/12/11 09:45:40;;;;;;;29.13;11.25;;;;;;;4.69;100.00;101620.47;5030427;28;20037;-76
2021/12/11 09:48:11;;;;;;;32.63;11.93;;;;;;;4.81;100.00;101624.19;5030618;28;20136;-75
2021/12/11 09:50:47;;;;;;;26.67;9.97;;;;;;;4.90;100.00;101627.22;5012377;28;20493;-74
2021/12/11 09:53:16;;;;;;;25.75;9.63;;;;;;;5.00;100.00;101635.50;4997296;28;20040;-77
2021/12/11 09:55:42;;;;;;;27.00;9.77;;;;;;;5.07;100.00;101633.34;5012502;28;20029;-77
2021/12/11 09:58:12;;;;;;;32.78;10.52;;;;;;;5.16;100.00;101639.91;5030251;28;20133;-77
2021/12/11 10:00:45;;;;;;;28.02;10.23;;;;;;;5.25;100.00;101648.16;5030573;28;20116;-76
2021/12/11 10:03:13;;;;;;;23.58;9.82;;;;;;;5.30;100.00;101640.84;5030081;28;20033;-77
2021/12/11 10:05:49;;;;;;;36.10;10.07;;;;;;;5.42;100.00;101651.66;5030142;28;20167;-76
2021/12/11 10:11:04;;;;;;;22.23;7.95;;;;;;;5.60;100.00;101658.56;5030634;28;20045;-76
2021/12/11 10:13:32;;;;;;;19.98;8.23;;;;;;;5.63;100.00;101661.00;5028938;28;20366;-76
2021/12/11 10:16:00;;;;;;;23.67;8.52;;;;;;;5.60;100.00;101665.63;5029990;28;20129;-75
2021/12/11 10:18:29;;;;;;;25.27;8.60;;;;;;;5.57;99.86;101668.41;5012526;28;20470;-75
2021/12/11 10:21:13;;;;;;;22.67;8.52;;;;;;;5.57;100.00;101671.94;5029894;28;20485;-75
2021/12/11 10:23:40;;;;;;;23.23;7.53;;;;;;;5.57;100.00;101664.00;5030445;28;20029;-75
2021/12/11 10:26:10;;;;;;;19.20;7.07;;;;;;;5.64;100.00;101667.13;5030274;28;20037;-76
2021/12/11 10:28:39;;;;;;;22.05;7.15;;;;;;;5.67;100.00;101671.41;5030587;28;20377;-75
2021/12/11 10:31:08;;;;;;;20.77;7.25;;;;;;;5.77;100.00;101675.22;5030554;28;20037;-77
2021/12/11 10:33:35;;;;;;;14.07;6.43;;;;;;;5.89;100.00;101677.16;5030414;28;20033;-76
2021/12/11 10:36:06;;;;;;;16.27;5.38;;;;;;;6.00;100.00;101677.44;5029605;28;20030;-76
2021/12/11 10:38:32;;;;;;;10.50;5.53;;;;;;;6.17;100.00;101686.16;5030553;28;20108;-76
2021/12/11 10:41:02;;;;;;;17.65;5.80;;;;;;;6.44;100.00;101688.97;5030088;28;20111;-75
2021/12/11 10:43:37;;;;;;;13.98;5.85;;;;;;;6.70;100.00;101681.25;5029768;28;20107;-75
2021/12/11 10:46:05;;;;;;;18.25;5.45;;;;;;;6.80;98.24;101690.31;5030530;28;20033;-76
2021/12/11 10:48:33;;;;;;;14.52;6.00;;;;;;;6.79;94.11;101690.44;5016656;28;20037;-74
2021/12/11 10:51:30;;;;;;;19.38;7.13;;;;;;;6.87;94.16;101688.19;5034032;28;20056;-77
2021/12/11 10:53:57;;;;;;;22.00;9.90;;;;;;;7.02;94.77;101700.44;5033371;28;20144;-74
2021/12/11 10:56:25;;;;;;;21.88;9.77;;;;;;;7.07;94.19;101711.59;5015649;28;20504;-76
2021/12/11 10:59:02;;;;;;;25.92;9.70;;;;;;;6.91;92.62;101705.53;5015973;28;20033;-77
2021/12/11 11:01:53;;;;;;;24.30;7.47;;;;;;;6.55;93.20;101709.47;5032732;28;20040;-76
2021/12/11 11:04:24;;;;;;;18.38;5.97;;;;;;;6.24;93.85;101718.34;5033370;28;20025;-75
2021/12/11 11:06:51;;;;;;;17.05;5.72;;;;;;;6.00;94.91;101714.41;5033734;28;20378;-74
2021/12/11 11:09:19;;;;;;;15.20;5.90;;;;;;;5.91;96.88;101721.97;5032852;28;20037;-73
2021/12/11 11:11:46;;;;;;;15.02;4.60;;;;;;;5.98;98.11;101712.78;5032929;28;20473;-74
2021/12/11 11:14:14;;;;;;;14.88;5.00;;;;;;;6.07;97.39;101714.91;5032595;28;20021;-73
2021/12/11 11:16:44;;;;;;;20.90;3.67;;;;;;;6.21;95.96;101710.63;5032656;28;20080;-76
2021/12/11 11:19:10;;;;;;;16.73;4.53;;;;;;;6.23;96.38;101716.69;5032709;28;20322;-77
2021/12/11 11:21:43;;;;;;;15.50;2.88;;;;;;;6.21;95.93;101721.19;5032168;28;20434;-75
2021/12/11 11:24:10;;;;;;;14.63;3.33;;;;;;;6.10;95.43;101719.16;5032746;28;20033;-78
2021/12/11 11:26:43;;;;;;;17.90;2.63;;;;;;;5.95;95.08;101721.72;5032468;28;20026;-75
2021/12/11 11:29:12;;;;;;;15.25;2.83;;;;;;;5.87;94.67;101717.78;5032488;28;20033;-77
2021/12/11 11:31:41;;;;;;;22.20;4.35;;;;;;;5.79;95.04;101724.38;5032393;28;20021;-73
2021/12/11 11:34:14;;;;;;;12.50;2.85;;;;;;;5.70;95.80;101722.25;5032270;28;20044;-73
2021/12/11 11:36:40;;;;;;;18.55;3.10;;;;;;;5.69;95.83;101746.09;5031974;28;20331;-75
2021/12/11 11:39:09;;;;;;;19.88;3.17;;;;;;;5.71;95.66;101744.25;5032052;28;20482;-74
2021/12/11 11:42:08;;;;;;;21.20;2.95;;;;;;;5.75;95.42;101745.78;5014038;28;20124;-73
2021/12/11 11:44:33;;;;;;;23.70;3.13;;;;;;;5.76;95.55;101747.47;5022637;28;20069;-74